This is the latest recevied weather packets stored in our database for station/object IK2YOU-3. If no packets are shown the sender has not sent any weather packets the latest 1 day(s).
| Time | Temp. | Humidity | Pressure | Rain* | Wind** | Luminosity | Snow |
|---|---|---|---|---|---|---|---|
| 1778057646 | 14.44° C | 68% | 1005.8 hPa | 4.06 mm | - | 130 W/m² | - |
| 1778056446 | 14.44° C | 72% | 1006.1 hPa | 3.81 mm | - | 89 W/m² | - |
| 1778055845 | 14.44° C | 72% | 1006.4 hPa | 3.05 mm | - | 51 W/m² | - |
| 1778055245 | 14.44° C | 73% | 1006.2 hPa | 1.78 mm | - | 22 W/m² | - |
| 1778054045 | 14.44° C | 75% | 1005.8 hPa | 0 mm | - | 16 W/m² | - |
| 1778052258 | 15° C | 69% | 1005.8 hPa | 0 mm | - | 199 W/m² | - |
| 1778050576 | 14.44° C | 66% | 1005.8 hPa | 0 mm | - | 199 W/m² | - |
| 1778049845 | 14.44° C | 66% | 1006.1 hPa | 0 mm | - | 135 W/m² | - |
| 1778048649 | 13.89° C | 66% | 1006.4 hPa | 0 mm | - | 76 W/m² | - |
| 1778048045 | 13.89° C | 66% | 1006.4 hPa | 0 mm | - | 98 W/m² | - |
| 1778046972 | 13.89° C | 66% | 1006.4 hPa | 0.25 mm | - | 30 W/m² | - |
| 1778045645 | 13.89° C | 66% | 1006.5 hPa | 0.51 mm | - | 15 W/m² | - |
| 1778044445 | 13.89° C | 66% | 1006.4 hPa | 0.51 mm | - | 28 W/m² | - |
| 1778043254 | 13.89° C | 67% | 1006.7 hPa | 0.51 mm | - | 15 W/m² | - |
| 1778041575 | 13.89° C | 67% | 1007.2 hPa | 0.76 mm | - | 0 W/m² | - |
| 1778040971 | 13.89° C | 67% | 1007.2 hPa | 0.51 mm | - | 0 W/m² | - |
| 1778040372 | 13.89° C | 67% | 1007 hPa | 0.51 mm | - | 0 W/m² | - |
| 1778039037 | 13.89° C | 68% | 1007.2 hPa | 0.76 mm | - | 0 W/m² | - |
| 1778037835 | 13.89° C | 69% | 1007.3 hPa | 0.51 mm | - | 0 W/m² | - |
| 1778037366 | 13.89° C | 71% | 1007.2 hPa | 0.51 mm | - | 0 W/m² | - |
| 1778036636 | 13.89° C | 71% | 1007.3 hPa | 0.51 mm | - | 0 W/m² | - |
| 1778036036 | 13.89° C | 72% | 1007.5 hPa | 0 mm | - | 0 W/m² | - |
| 1778033757 | 13.89° C | 73% | 1008.1 hPa | 0 mm | - | 0 W/m² | - |
| 1778033030 | 13.89° C | 73% | 1008.2 hPa | 0 mm | - | 0 W/m² | - |
| 1778031830 | 13.89° C | 73% | 1008.4 hPa | 0 mm | - | 0 W/m² | - |
* Rain latest hour (hover to see other rain measurements)
** Current wind speed in m/s (hover to see current wind gust speed)